createdAt,value
2022-09-10T00:01:59.909Z,0.70
2022-09-10T00:04:02.640Z,0.82
2022-09-10T00:06:05.534Z,1.00
2022-09-10T00:08:08.304Z,0.80
2022-09-10T00:10:10.556Z,1.35
2022-09-10T00:12:12.261Z,1.13
2022-09-10T00:14:17.320Z,0.70
2022-09-10T00:16:19.268Z,0.85
2022-09-10T00:18:22.497Z,0.70
2022-09-10T00:20:24.462Z,0.80
2022-09-10T00:22:26.592Z,0.80
2022-09-10T00:24:28.859Z,0.88
2022-09-10T00:26:35.331Z,0.93
2022-09-10T00:28:37.007Z,0.95
2022-09-10T00:30:43.121Z,0.70
2022-09-10T00:32:44.817Z,0.70
2022-09-10T00:34:47.023Z,0.90
2022-09-10T00:36:48.642Z,0.88
2022-09-10T00:38:51.510Z,0.90
2022-09-10T00:40:53.148Z,0.63
2022-09-10T00:42:55.651Z,0.70
2022-09-10T00:45:00.088Z,0.80
2022-09-10T00:47:01.779Z,0.90
2022-09-10T00:49:09.972Z,0.82
2022-09-10T00:51:11.637Z,0.77
2022-09-10T00:53:18.852Z,0.80
2022-09-10T00:55:21.241Z,0.80
2022-09-10T00:57:23.623Z,0.90
2022-09-10T00:59:26.605Z,1.08
2022-09-10T01:01:28.203Z,0.90
2022-09-10T01:03:31.516Z,0.73
2022-09-10T01:05:34.426Z,0.93
2022-09-10T01:07:36.493Z,0.80
2022-09-10T01:09:39.378Z,0.63
2022-09-10T01:12:12.394Z,1.10
2022-09-10T01:14:23.054Z,1.15
2022-09-10T01:16:45.017Z,0.90
2022-09-10T01:18:54.651Z,0.80
2022-09-10T01:21:00.191Z,1.20
2022-09-10T01:23:15.649Z,1.30
2022-09-10T01:25:37.660Z,1.27
2022-09-10T01:27:51.312Z,1.10
2022-09-10T01:30:15.780Z,1.00
2022-09-10T01:32:28.933Z,1.50
2022-09-10T01:34:39.342Z,1.20
2022-09-10T01:36:45.281Z,1.50
2022-09-10T01:38:46.947Z,1.40
2022-09-10T01:40:49.611Z,1.58
2022-09-10T01:42:51.257Z,1.90
2022-09-10T01:44:54.423Z,1.60
2022-09-10T01:47:06.358Z,1.30
2022-09-10T01:49:27.511Z,1.20
2022-09-10T01:51:57.917Z,1.50
2022-09-10T01:54:26.886Z,1.30
2022-09-10T01:56:46.959Z,1.63
2022-09-10T01:58:49.145Z,1.55
2022-09-10T02:01:08.109Z,1.70
2022-09-10T02:03:16.310Z,1.83
2022-09-10T02:05:20.680Z,1.88
2022-09-10T02:07:24.680Z,1.58
2022-09-10T02:09:26.608Z,1.80
2022-09-10T02:11:29.175Z,1.55
2022-09-10T02:13:31.165Z,2.05
2022-09-10T02:15:33.228Z,1.95
2022-09-10T02:17:36.896Z,1.65
2022-09-10T02:19:38.501Z,1.77
2022-09-10T02:21:40.419Z,2.05
2022-09-10T02:23:55.299Z,1.73
2022-09-10T02:26:00.037Z,1.95
2022-09-10T02:28:02.137Z,2.00
2022-09-10T02:30:05.054Z,1.92
2022-09-10T02:32:08.300Z,2.40
2022-09-10T02:34:10.902Z,2.08
2022-09-10T02:36:12.706Z,2.67
2022-09-10T02:38:14.758Z,3.80
2022-09-10T02:40:19.552Z,3.47
2022-09-10T02:42:22.483Z,2.80
2022-09-10T02:44:24.584Z,1.95
2022-09-10T02:46:26.176Z,2.47
2022-09-10T02:48:28.356Z,3.05
2022-09-10T02:50:29.983Z,2.70
2022-09-10T02:52:31.643Z,3.08
2022-09-10T02:54:33.249Z,2.80
2022-09-10T02:56:35.056Z,2.38
2022-09-10T02:58:39.888Z,2.65
2022-09-10T03:00:42.476Z,2.65
2022-09-10T03:02:44.156Z,2.30
2022-09-10T03:04:46.157Z,2.40
2022-09-10T03:06:49.377Z,2.47
2022-09-10T03:08:51.824Z,2.25
2022-09-10T03:10:53.800Z,2.83
2022-09-10T03:12:55.449Z,1.95
2022-09-10T03:14:58.130Z,2.28
2022-09-10T03:17:00.275Z,2.70
2022-09-10T03:19:02.125Z,1.85
2022-09-10T03:21:15.864Z,1.80
2022-09-10T03:23:18.347Z,2.20
2022-09-10T03:25:20.192Z,2.33
2022-09-10T03:27:22.916Z,2.25
2022-09-10T03:29:24.687Z,2.20
2022-09-10T03:31:27.342Z,2.13
2022-09-10T03:33:29.089Z,2.08
2022-09-10T03:35:30.660Z,1.70
2022-09-10T03:37:32.434Z,1.80
2022-09-10T03:39:34.147Z,2.00
2022-09-10T03:41:35.904Z,2.30
2022-09-10T03:43:37.704Z,2.75
2022-09-10T03:45:40.078Z,3.03
2022-09-10T03:47:42.205Z,2.72
2022-09-10T03:49:43.929Z,2.30
2022-09-10T03:51:45.535Z,2.15
2022-09-10T03:53:47.461Z,2.70
2022-09-10T03:55:50.791Z,2.65
2022-09-10T03:57:52.401Z,2.33
2022-09-10T03:59:54.281Z,2.35
2022-09-10T04:01:57.230Z,2.20
2022-09-10T04:03:58.945Z,2.33
2022-09-10T04:06:00.887Z,1.80
2022-09-10T04:08:02.803Z,2.10
2022-09-10T04:10:04.700Z,2.13
2022-09-10T04:12:06.633Z,2.13
2022-09-10T04:14:08.251Z,2.40
2022-09-10T04:16:10.077Z,2.47
2022-09-10T04:18:11.986Z,2.55
2022-09-10T04:20:13.612Z,2.33
2022-09-10T04:22:15.315Z,2.47
2022-09-10T04:24:17.008Z,1.85
2022-09-10T04:26:20.489Z,1.92
2022-09-10T04:28:22.115Z,2.15
2022-09-10T04:30:23.816Z,1.75
2022-09-10T04:32:25.439Z,1.80
2022-09-10T04:34:27.085Z,1.95
2022-09-10T04:36:29.204Z,1.60
2022-09-10T04:38:32.196Z,1.70
2022-09-10T04:40:34.407Z,1.60
2022-09-10T04:42:39.122Z,1.88
2022-09-10T04:44:40.993Z,1.60
2022-09-10T04:46:43.532Z,1.30
2022-09-10T04:48:45.129Z,1.38
2022-09-10T04:51:14.352Z,1.20
2022-09-10T04:53:08.422Z,1.75
2022-09-10T04:55:10.678Z,1.77
2022-09-10T04:57:12.495Z,1.80
2022-09-10T04:59:14.150Z,1.70
2022-09-10T05:01:15.955Z,2.15
2022-09-10T05:03:18.217Z,2.17
2022-09-10T05:05:19.833Z,2.28
2022-09-10T05:07:21.380Z,2.22
2022-09-10T05:09:23.215Z,1.83
2022-09-10T05:11:25.444Z,2.65
2022-09-10T05:13:27.634Z,2.40
2022-09-10T05:15:29.328Z,2.20
2022-09-10T05:17:30.927Z,1.80
2022-09-10T05:19:32.561Z,1.85
2022-09-10T05:21:34.185Z,2.33
2022-09-10T05:23:36.273Z,2.13
2022-09-10T05:25:38.174Z,2.20
2022-09-10T05:27:39.791Z,2.33
2022-09-10T05:29:41.370Z,1.90
2022-09-10T05:31:43.168Z,1.92
2022-09-10T05:33:44.923Z,1.90
2022-09-10T05:35:48.750Z,1.98
2022-09-10T05:37:50.438Z,2.35
2022-09-10T05:39:52.054Z,1.92
2022-09-10T05:41:55.291Z,2.10
2022-09-10T05:43:57.470Z,2.03
2022-09-10T05:45:59.233Z,1.85
2022-09-10T05:48:00.912Z,1.95
2022-09-10T05:50:02.572Z,2.20
2022-09-10T05:52:04.344Z,2.20
2022-09-10T05:54:06.423Z,1.77
2022-09-10T05:56:08.171Z,2.25
2022-09-10T05:58:10.299Z,1.75
2022-09-10T06:00:12.222Z,2.08
2022-09-10T06:02:23.781Z,1.67
2022-09-10T06:04:25.818Z,1.65
2022-09-10T06:06:28.405Z,1.90
2022-09-10T06:08:33.136Z,2.22
2022-09-10T06:10:35.247Z,2.05
2022-09-10T06:12:38.162Z,1.50
2022-09-10T06:14:39.776Z,2.17
2022-09-10T06:16:42.124Z,1.83
2022-09-10T06:18:44.178Z,2.28
2022-09-10T06:20:47.768Z,2.85
2022-09-10T06:22:49.382Z,2.15
2022-09-10T06:24:51.136Z,2.80
2022-09-10T06:26:52.805Z,2.63
2022-09-10T06:28:56.703Z,2.72
2022-09-10T06:30:58.523Z,2.75
2022-09-10T06:33:00.205Z,3.35
2022-09-10T06:35:01.800Z,3.00
2022-09-10T06:37:04.254Z,2.22
2022-09-10T06:39:07.235Z,2.35
2022-09-10T06:41:12.178Z,2.33
2022-09-10T06:43:13.921Z,2.67
2022-09-10T06:45:15.731Z,2.50
2022-09-10T06:47:55.774Z,1.92
2022-09-10T06:49:38.950Z,2.25
2022-09-10T06:51:40.757Z,2.53
2022-09-10T06:53:43.712Z,2.45
2022-09-10T06:55:45.416Z,1.75
2022-09-10T06:57:47.455Z,3.03
2022-09-10T06:59:49.103Z,2.30
2022-09-10T07:01:50.801Z,2.05
2022-09-10T07:03:57.069Z,1.95
2022-09-10T07:06:03.529Z,3.00
2022-09-10T07:08:05.572Z,2.13
2022-09-10T07:10:07.572Z,2.20
2022-09-10T07:12:09.571Z,2.40
2022-09-10T07:14:15.271Z,3.05
2022-09-10T07:16:21.181Z,2.15
2022-09-10T07:18:22.857Z,2.85
2022-09-10T07:20:25.729Z,2.15
2022-09-10T07:22:27.339Z,2.40
2022-09-10T07:24:28.959Z,2.78
2022-09-10T07:26:30.765Z,2.17
2022-09-10T07:28:32.520Z,2.42
2022-09-10T07:30:35.954Z,2.60
2022-09-10T07:32:37.674Z,1.70
2022-09-10T07:34:39.253Z,1.95
2022-09-10T07:36:40.908Z,2.60
2022-09-10T07:38:43.463Z,1.75
2022-09-10T07:40:45.075Z,1.85
2022-09-10T07:42:46.663Z,1.92
2022-09-10T07:44:48.243Z,1.50
2022-09-10T07:46:49.924Z,1.88
2022-09-10T07:48:59.230Z,1.25
2022-09-10T07:51:03.529Z,1.30
2022-09-10T07:53:07.708Z,1.85
2022-09-10T07:55:09.760Z,1.95
2022-09-10T07:57:11.525Z,1.50
2022-09-10T07:59:13.403Z,1.90
2022-09-10T08:01:15.342Z,1.83
2022-09-10T08:03:18.328Z,1.67
2022-09-10T08:05:19.955Z,1.30
2022-09-10T08:07:21.611Z,1.45
2022-09-10T08:09:24.267Z,1.70
2022-09-10T08:11:26.503Z,1.50
2022-09-10T08:13:30.037Z,1.55
2022-09-10T08:15:31.765Z,1.33
2022-09-10T08:17:34.323Z,1.48
2022-09-10T08:19:36.879Z,1.38
2022-09-10T08:21:38.489Z,1.20
2022-09-10T08:23:40.281Z,1.10
2022-09-10T08:25:51.634Z,1.40
2022-09-10T08:27:54.452Z,1.00
2022-09-10T08:29:56.420Z,1.42
2022-09-10T08:31:59.040Z,1.15
2022-09-10T08:34:01.600Z,1.50
2022-09-10T08:36:04.801Z,1.05
2022-09-10T08:38:06.621Z,1.10
2022-09-10T08:40:11.988Z,0.80
2022-09-10T08:42:22.579Z,1.98
2022-09-10T08:44:49.122Z,1.25
2022-09-10T08:46:59.977Z,1.55
2022-09-10T08:49:13.261Z,0.95
2022-09-10T08:51:18.862Z,1.08
2022-09-10T08:53:26.128Z,0.82
2022-09-10T08:55:31.753Z,1.15
2022-09-10T08:58:02.856Z,1.85
2022-09-10T09:00:05.533Z,0.70
2022-09-10T09:02:48.191Z,0.88
2022-09-10T09:05:01.031Z,1.42
2022-09-10T09:07:06.079Z,1.33
2022-09-10T09:09:13.503Z,1.02
2022-09-10T09:11:45.947Z,1.08
2022-09-10T09:13:50.280Z,0.88
2022-09-10T09:16:09.807Z,1.17
2022-09-10T09:18:28.681Z,1.38
2022-09-10T09:20:50.370Z,0.95
2022-09-10T09:22:55.899Z,1.10
2022-09-10T09:25:10.030Z,1.33
2022-09-10T09:27:16.267Z,1.15
2022-09-10T09:29:27.069Z,1.45
2022-09-10T09:31:34.329Z,1.42
2022-09-10T09:33:36.590Z,1.50
2022-09-10T09:35:53.128Z,1.30
2022-09-10T09:38:23.804Z,1.10
2022-09-10T09:40:58.081Z,0.90
2022-09-10T09:43:11.313Z,1.10
2022-09-10T09:45:21.883Z,0.88
2022-09-10T09:47:23.499Z,1.13
2022-09-10T09:49:26.197Z,0.98
2022-09-10T09:51:32.579Z,1.13
2022-09-10T09:53:34.201Z,1.30
2022-09-10T09:55:40.297Z,1.33
2022-09-10T09:57:42.934Z,1.10
2022-09-10T09:59:45.085Z,1.15
2022-09-10T10:01:46.792Z,1.02
2022-09-10T10:03:52.871Z,1.63
2022-09-10T10:06:06.175Z,0.98
2022-09-10T10:08:28.488Z,1.13
2022-09-10T10:10:30.131Z,1.27
2022-09-10T10:12:33.187Z,0.90
2022-09-10T10:14:42.513Z,1.10
2022-09-10T10:16:45.893Z,1.17
2022-09-10T10:18:47.723Z,0.82
2022-09-10T10:20:51.183Z,1.17
2022-09-10T10:22:52.796Z,1.25
2022-09-10T10:24:54.940Z,0.80
2022-09-10T10:26:56.961Z,1.10
2022-09-10T10:29:01.346Z,1.10
2022-09-10T10:31:04.759Z,1.48
2022-09-10T10:33:18.166Z,0.85
2022-09-10T10:35:27.762Z,1.10
2022-09-10T10:37:47.555Z,0.90
2022-09-10T10:39:52.326Z,1.10
2022-09-10T10:42:06.251Z,0.95
2022-09-10T10:44:39.217Z,1.05
2022-09-10T10:46:56.028Z,1.17
2022-09-10T10:49:27.680Z,1.10
2022-09-10T10:51:58.560Z,1.00
2022-09-10T10:54:26.983Z,1.13
2022-09-10T10:56:40.703Z,1.67
2022-09-10T10:59:04.608Z,1.27
2022-09-10T11:01:15.253Z,1.35
2022-09-10T11:03:27.133Z,1.42
2022-09-10T11:05:38.460Z,1.48
2022-09-10T11:07:43.261Z,1.38
2022-09-10T11:09:59.278Z,1.55
2022-09-10T11:12:07.173Z,1.40
2022-09-10T11:14:28.237Z,1.20
2022-09-10T11:16:40.277Z,1.40
2022-09-10T11:18:54.647Z,1.40
2022-09-10T11:21:18.254Z,1.50
2022-09-10T11:23:45.221Z,1.08
2022-09-10T11:25:59.655Z,1.02
2022-09-10T11:28:06.694Z,1.30
2022-09-10T11:30:15.717Z,1.48
2022-09-10T11:32:27.099Z,1.27
2022-09-10T11:34:48.968Z,1.00
2022-09-10T11:36:58.569Z,0.82
2022-09-10T11:39:11.436Z,0.80
2022-09-10T11:41:19.905Z,0.73
2022-09-10T11:43:37.253Z,0.70
2022-09-10T11:45:47.722Z,0.70
2022-09-10T11:48:21.858Z,0.93
2022-09-10T11:50:34.512Z,0.65
2022-09-10T11:52:37.455Z,0.80
2022-09-10T11:54:39.657Z,0.68
2022-09-10T11:56:54.859Z,0.50
2022-09-10T11:59:02.655Z,0.70
2022-09-10T12:01:24.571Z,0.68
2022-09-10T12:03:45.587Z,0.40
2022-09-10T12:05:55.233Z,0.47
2022-09-10T12:08:21.838Z,0.35
2022-09-10T12:10:45.691Z,0.50
2022-09-10T12:12:53.374Z,0.40
2022-09-10T12:14:55.128Z,0.50
2022-09-10T12:16:59.852Z,0.63
2022-09-10T12:19:07.164Z,0.55
2022-09-10T12:21:17.905Z,0.52
2022-09-10T12:23:39.107Z,0.60
2022-09-10T12:25:41.644Z,0.50
2022-09-10T12:28:06.470Z,0.50
2022-09-10T12:30:33.616Z,0.50
2022-09-10T12:32:35.261Z,0.60
2022-09-10T12:34:37.819Z,0.70
2022-09-10T12:36:39.962Z,0.32
2022-09-10T12:38:46.040Z,0.73
2022-09-10T12:40:50.899Z,0.57
2022-09-10T12:42:58.926Z,0.45
2022-09-10T12:45:00.939Z,0.73
2022-09-10T12:47:17.614Z,0.50
2022-09-10T12:49:19.691Z,0.50
2022-09-10T12:51:42.228Z,0.50
2022-09-10T12:54:05.206Z,0.57
2022-09-10T12:56:33.208Z,0.60
2022-09-10T12:58:55.899Z,0.50
2022-09-10T13:00:58.238Z,0.50
2022-09-10T13:03:15.474Z,0.60
2022-09-10T13:05:27.740Z,0.60
2022-09-10T13:07:36.973Z,0.57
2022-09-10T13:09:39.056Z,0.40
2022-09-10T13:11:44.567Z,0.63
2022-09-10T13:13:59.535Z,0.50
2022-09-10T13:16:02.716Z,0.80
2022-09-10T13:18:33.995Z,0.47
2022-09-10T13:20:35.865Z,0.40
2022-09-10T13:23:04.230Z,0.50
2022-09-10T13:25:25.494Z,0.40
2022-09-10T13:27:42.984Z,0.65
2022-09-10T13:29:55.938Z,0.47
2022-09-10T13:32:04.515Z,0.90
2022-09-10T13:34:27.403Z,0.45
2022-09-10T13:36:48.253Z,0.60
2022-09-10T13:38:53.998Z,0.68
2022-09-10T13:41:04.574Z,0.80
2022-09-10T13:43:19.737Z,0.60
2022-09-10T13:45:25.314Z,0.70
2022-09-10T13:47:36.494Z,0.40
2022-09-10T13:49:47.794Z,0.50
2022-09-10T13:51:52.214Z,1.02
2022-09-10T13:53:54.227Z,0.60
2022-09-10T13:55:58.658Z,0.63
2022-09-10T13:58:18.082Z,0.70
2022-09-10T14:00:23.858Z,0.60
2022-09-10T14:03:00.937Z,0.50
2022-09-10T14:05:02.596Z,0.50
2022-09-10T14:07:16.119Z,0.55
2022-09-10T14:09:17.716Z,0.50
2022-09-10T14:11:28.833Z,0.60
2022-09-10T14:13:33.567Z,0.80
2022-09-10T14:15:39.026Z,0.80
2022-09-10T14:17:53.125Z,0.60
2022-09-10T14:19:59.351Z,0.75
2022-09-10T14:22:01.676Z,0.73
2022-09-10T14:24:03.376Z,0.68
2022-09-10T14:26:23.589Z,0.60
2022-09-10T14:28:27.164Z,0.60
2022-09-10T14:30:29.979Z,0.60
2022-09-10T14:32:33.952Z,0.60
2022-09-10T14:34:38.850Z,0.50
2022-09-10T14:36:40.486Z,0.50
2022-09-10T14:38:42.569Z,0.47
2022-09-10T14:40:47.765Z,0.50
2022-09-10T14:42:50.638Z,0.50
2022-09-10T14:44:52.629Z,0.32
2022-09-10T14:47:00.025Z,0.43
2022-09-10T14:49:09.311Z,0.60
2022-09-10T14:51:17.820Z,0.70
2022-09-10T14:53:19.389Z,0.60
2022-09-10T14:55:23.285Z,0.60
2022-09-10T14:57:24.901Z,0.75
2022-09-10T14:59:41.564Z,0.80
2022-09-10T15:01:45.528Z,0.70
2022-09-10T15:03:47.189Z,0.50
2022-09-10T15:05:48.865Z,0.68
2022-09-10T15:07:50.473Z,0.65
2022-09-10T15:09:53.343Z,0.63
2022-09-10T15:11:58.981Z,1.05
2022-09-10T15:14:01.118Z,0.80
2022-09-10T15:16:03.161Z,0.70
2022-09-10T15:18:11.682Z,0.75
2022-09-10T15:20:15.135Z,0.80
2022-09-10T15:22:25.451Z,0.75
2022-09-10T15:24:28.425Z,0.90
2022-09-10T15:26:31.225Z,0.90
2022-09-10T15:28:33.327Z,1.00
2022-09-10T15:30:36.010Z,0.90
2022-09-10T15:32:40.848Z,0.93
2022-09-10T15:34:43.572Z,1.10
2022-09-10T15:36:46.750Z,1.13
2022-09-10T15:38:51.199Z,0.57
2022-09-10T15:40:54.236Z,0.80
2022-09-10T15:42:55.817Z,1.30
2022-09-10T15:44:57.385Z,0.82
2022-09-10T15:47:02.865Z,0.60
2022-09-10T15:49:04.525Z,0.90
2022-09-10T15:51:09.262Z,1.00
2022-09-10T15:53:12.093Z,0.70
2022-09-10T15:55:13.998Z,1.05
2022-09-10T15:57:15.625Z,0.75
2022-09-10T15:59:17.532Z,0.80
2022-09-10T16:01:19.306Z,1.00
2022-09-10T16:03:21.515Z,0.98
2022-09-10T16:05:23.094Z,1.00
2022-09-10T16:07:24.673Z,0.95
2022-09-10T16:09:26.363Z,0.90
2022-09-10T16:11:31.149Z,0.88
2022-09-10T16:13:32.721Z,0.93
2022-09-10T16:15:35.139Z,0.95
2022-09-10T16:17:36.838Z,0.73
2022-09-10T16:19:38.899Z,1.02
2022-09-10T16:21:40.546Z,0.90
2022-09-10T16:23:43.106Z,0.75
2022-09-10T16:25:57.422Z,2.25
2022-09-10T16:27:59.152Z,0.85
2022-09-10T16:30:00.781Z,0.70
2022-09-10T16:32:02.744Z,1.00
2022-09-10T16:34:05.991Z,1.10
2022-09-10T16:36:08.544Z,1.20
2022-09-10T16:38:10.479Z,0.80
2022-09-10T16:40:16.044Z,0.90
2022-09-10T16:42:18.205Z,1.00
2022-09-10T16:44:19.852Z,1.15
2022-09-10T16:46:21.589Z,1.23
2022-09-10T16:48:23.202Z,1.05
2022-09-10T16:50:26.794Z,1.10
2022-09-10T16:52:29.005Z,0.88
2022-09-10T16:54:31.946Z,0.98
2022-09-10T16:56:39.717Z,1.20
2022-09-10T16:58:41.908Z,1.10
2022-09-10T17:00:44.469Z,0.95
2022-09-10T17:02:46.221Z,0.80
2022-09-10T17:04:47.925Z,1.10
2022-09-10T17:06:51.235Z,1.00
2022-09-10T17:08:58.073Z,1.10
2022-09-10T17:10:59.730Z,1.27
2022-09-10T17:13:01.515Z,1.10
2022-09-10T17:15:03.222Z,0.80
2022-09-10T17:17:05.430Z,0.80
2022-09-10T17:19:23.634Z,1.10
2022-09-10T17:21:26.856Z,1.05
2022-09-10T17:23:28.436Z,0.90
2022-09-10T17:25:30.130Z,1.60
2022-09-10T17:27:33.068Z,1.20
2022-09-10T17:29:34.664Z,0.98
2022-09-10T17:31:36.884Z,1.20
2022-09-10T17:33:39.072Z,1.13
2022-09-10T17:35:40.673Z,1.15
2022-09-10T17:37:42.379Z,1.10
2022-09-10T17:39:44.839Z,1.05
2022-09-10T17:41:46.956Z,1.52
2022-09-10T17:43:49.762Z,1.35
2022-09-10T17:45:51.873Z,1.25
2022-09-10T17:47:53.481Z,1.13
2022-09-10T17:49:55.231Z,1.30
2022-09-10T17:51:56.925Z,1.45
2022-09-10T17:53:58.914Z,1.65
2022-09-10T17:56:05.088Z,1.42
2022-09-10T17:58:06.809Z,2.70
2022-09-10T18:00:09.802Z,1.50
2022-09-10T18:02:18.609Z,1.35
2022-09-10T18:04:21.694Z,1.52
2022-09-10T18:06:25.296Z,1.80
2022-09-10T18:08:26.891Z,1.83
2022-09-10T18:10:28.497Z,1.73
2022-09-10T18:12:30.173Z,1.58
2022-09-10T18:14:31.941Z,1.50
2022-09-10T18:16:35.452Z,1.80
2022-09-10T18:18:37.655Z,1.80
2022-09-10T18:20:39.304Z,2.00
2022-09-10T18:22:41.501Z,1.60
2022-09-10T18:24:43.095Z,2.10
2022-09-10T18:26:47.231Z,1.90
2022-09-10T18:29:04.838Z,1.95
2022-09-10T18:31:06.794Z,2.13
2022-09-10T18:33:09.821Z,2.20
2022-09-10T18:35:11.498Z,1.90
2022-09-10T18:37:13.958Z,3.40
2022-09-10T18:39:15.547Z,3.63
2022-09-10T18:41:22.080Z,2.78
2022-09-10T18:43:23.689Z,1.92
2022-09-10T18:45:25.327Z,2.20
2022-09-10T18:47:44.210Z,2.13
2022-09-10T18:49:50.532Z,2.03
2022-09-10T18:51:53.951Z,2.42
2022-09-10T18:53:58.397Z,2.15
2022-09-10T18:56:10.036Z,2.38
2022-09-10T18:58:11.920Z,2.00
2022-09-10T19:00:14.639Z,2.17
2022-09-10T19:02:17.939Z,2.13
2022-09-10T19:04:22.428Z,2.40
2022-09-10T19:06:26.667Z,2.58
2022-09-10T19:08:28.219Z,1.92
2022-09-10T19:10:29.918Z,2.05
2022-09-10T19:12:31.578Z,1.88
2022-09-10T19:14:35.709Z,2.20
2022-09-10T19:16:37.494Z,2.40
2022-09-10T19:18:39.803Z,2.80
2022-09-10T19:20:41.392Z,2.35
2022-09-10T19:22:44.017Z,2.22
2022-09-10T19:25:01.052Z,1.80
2022-09-10T19:27:02.793Z,2.10
2022-09-10T19:29:04.783Z,1.77
2022-09-10T19:31:08.420Z,2.00
2022-09-10T19:33:10.042Z,2.45
2022-09-10T19:35:11.966Z,2.63
2022-09-10T19:37:13.601Z,2.10
2022-09-10T19:39:17.116Z,2.15
2022-09-10T19:41:18.982Z,1.98
2022-09-10T19:43:21.303Z,1.98
2022-09-10T19:45:23.020Z,1.90
2022-09-10T19:47:25.407Z,1.67
2022-09-10T19:49:27.147Z,1.67
2022-09-10T19:51:32.015Z,1.20
2022-09-10T19:53:33.894Z,1.55
2022-09-10T19:55:36.340Z,1.20
2022-09-10T19:57:38.004Z,1.40
2022-09-10T19:59:39.581Z,1.58
2022-09-10T20:01:42.374Z,1.50
2022-09-10T20:03:45.544Z,1.40
2022-09-10T20:05:47.332Z,1.50
2022-09-10T20:07:49.337Z,1.67
2022-09-10T20:09:51.150Z,1.80
2022-09-10T20:11:52.864Z,1.55
2022-09-10T20:13:58.983Z,1.40
2022-09-10T20:16:04.278Z,1.52
2022-09-10T20:18:06.218Z,1.50
2022-09-10T20:20:08.215Z,1.42
2022-09-10T20:22:10.008Z,1.70
2022-09-10T20:24:11.663Z,1.65
2022-09-10T20:26:16.060Z,3.58
2022-09-10T20:28:17.628Z,2.60
2022-09-10T20:30:19.245Z,3.78
2022-09-10T20:32:21.107Z,2.88
2022-09-10T20:34:23.133Z,1.85
2022-09-10T20:36:26.078Z,1.92
2022-09-10T20:38:27.770Z,1.55
2022-09-10T20:40:29.380Z,1.77
2022-09-10T20:42:33.678Z,1.98
2022-09-10T20:44:36.009Z,2.72
2022-09-10T20:46:38.057Z,2.47
2022-09-10T20:48:40.388Z,2.45
2022-09-10T20:50:54.491Z,1.85
2022-09-10T20:52:56.066Z,2.50
2022-09-10T20:54:57.683Z,2.88
2022-09-10T20:56:59.443Z,3.45
2022-09-10T20:59:02.011Z,3.45
2022-09-10T21:01:07.035Z,4.05
2022-09-10T21:03:14.532Z,3.97
2022-09-10T21:05:16.210Z,4.07
2022-09-10T21:07:17.832Z,3.20
2022-09-10T21:09:19.480Z,3.10
2022-09-10T21:11:21.649Z,3.33
2022-09-10T21:13:25.225Z,3.03
2022-09-10T21:15:26.863Z,3.25
2022-09-10T21:17:28.488Z,2.92
2022-09-10T21:19:30.105Z,3.15
2022-09-10T21:21:34.129Z,2.53
2022-09-10T21:23:36.824Z,2.95
2022-09-10T21:25:38.388Z,2.63
2022-09-10T21:27:40.289Z,2.92
2022-09-10T21:29:41.907Z,2.58
2022-09-10T21:31:45.401Z,2.88
2022-09-10T21:33:47.078Z,2.70
2022-09-10T21:35:48.659Z,2.72
2022-09-10T21:37:50.363Z,3.00
2022-09-10T21:39:52.545Z,2.65
2022-09-10T21:41:55.358Z,2.75
2022-09-10T21:43:57.374Z,3.15
2022-09-10T21:46:00.915Z,2.80
2022-09-10T21:48:02.721Z,2.83
2022-09-10T21:50:04.557Z,2.75
2022-09-10T21:52:06.271Z,3.25
2022-09-10T21:54:13.040Z,3.08
2022-09-10T21:56:16.663Z,2.80
2022-09-10T21:58:18.289Z,2.33
2022-09-10T22:00:20.207Z,3.30
2022-09-10T22:02:23.841Z,3.65
2022-09-10T22:04:25.621Z,3.72
2022-09-10T22:06:29.231Z,3.55
2022-09-10T22:08:30.820Z,3.80
2022-09-10T22:10:32.530Z,4.05
2022-09-10T22:12:34.168Z,3.97
2022-09-10T22:14:35.830Z,4.10
2022-09-10T22:16:38.151Z,3.05
2022-09-10T22:18:40.022Z,4.18
2022-09-10T22:20:41.839Z,3.85
2022-09-10T22:22:44.361Z,4.00
2022-09-10T22:24:45.941Z,3.70
2022-09-10T22:26:47.760Z,4.45
2022-09-10T22:28:56.772Z,4.25
2022-09-10T22:30:58.397Z,4.97
2022-09-10T22:33:00.040Z,3.60
2022-09-10T22:35:01.602Z,4.55
2022-09-10T22:37:03.611Z,4.22
2022-09-10T22:39:07.946Z,5.18
2022-09-10T22:41:10.378Z,5.10
2022-09-10T22:43:12.018Z,3.90
2022-09-10T22:45:13.736Z,4.85
2022-09-10T22:47:15.370Z,5.10
2022-09-10T22:49:17.127Z,4.68
2022-09-10T22:51:22.710Z,5.10
2022-09-10T22:53:24.403Z,4.25
2022-09-10T22:55:26.331Z,4.85
2022-09-10T22:57:29.101Z,5.20
2022-09-10T22:59:30.990Z,4.18
2022-09-10T23:01:37.492Z,4.72
2022-09-10T23:03:39.689Z,4.65
2022-09-10T23:05:41.661Z,4.45
2022-09-10T23:07:43.321Z,5.13
2022-09-10T23:09:44.905Z,4.65
2022-09-10T23:11:46.927Z,4.75
2022-09-10T23:13:50.699Z,4.72
2022-09-10T23:15:52.629Z,5.20
2022-09-10T23:17:55.781Z,4.95
2022-09-10T23:19:57.352Z,5.05
2022-09-10T23:21:58.978Z,4.50
2022-09-10T23:24:02.748Z,5.43
2022-09-10T23:26:06.581Z,5.93
2022-09-10T23:28:08.194Z,6.13
2022-09-10T23:30:10.647Z,6.78
2022-09-10T23:32:12.289Z,4.55
2022-09-10T23:34:16.572Z,4.60
2022-09-10T23:36:18.280Z,5.50
2022-09-10T23:38:19.852Z,5.70
2022-09-10T23:40:27.225Z,4.90
2022-09-10T23:42:35.589Z,5.20
2022-09-10T23:44:37.765Z,5.00
2022-09-10T23:46:39.920Z,5.65
2022-09-10T23:48:45.982Z,5.32
2022-09-10T23:50:47.878Z,5.70
2022-09-10T23:52:49.717Z,5.57
2022-09-10T23:54:51.456Z,6.00
2022-09-10T23:56:53.115Z,5.88
2022-09-10T23:58:55.858Z,6.57
